Weather observations for the past three days for
Wenatchee - Pangborn Memorial Airport
Imperial (Metric)
Date Time (pdt) Wind (mph) Vis. (mi.) Weather Sky Cond. Temperature (ºF) Relative Humidity Wind Chill (°F) Heat Index (°F) Pressure Precipitation (in)
Air Dwpt 6 hour altimeter (in) sea level (mb) 1 hr 3 hr 6 hr
Max. Min.
01 19:55 E 7 10.00 Fair CLR 73.9 48 40% 29.65 1003.4
01 18:55 E 13 10.00 Mostly Cloudy BKN100 77 48 36% 78 29.64 1003.0
01 17:55 E 12 10.00 Fair CLR 79 46.9 32% 79 29.63 1002.5
01 16:55 E 14 10.00 Fair CLR 82 45 84 69.1 27% 80 29.62 1002.2
01 15:55 SE 9 10.00 Fair CLR 82 42.1 24% 80 29.64 1002.7
01 14:55 SE 8 9.00 Fair CLR 82 44.1 26% 80 29.65 1003.3
01 13:55 E 3 8.00 Fair CLR 79 42.1 27% 78 29.67 1003.9
01 12:55 SW 3 7.00 Fair CLR 75 44.1 33% 77 29.69 1004.6
01 11:55 W 5 4.00 Fair with Haze CLR 73.9 44.1 34% 29.71 1005.4
01 10:55 SW 7 4.00 Fair with Haze CLR 69.1 45 69.1 59 42% 29.74 1006.4
01 09:55 W 7 6.00 A Few Clouds with Haze FEW027 68 44.1 42% 29.76 1006.8
01 08:55 W 7 5.00 A Few Clouds with Haze FEW032 62.1 44.1 52% 29.76 1007.2
01 07:55 W 7 5.00 Partly Cloudy with Haze SCT025 61 44.1 54% 29.77 1007.3
01 06:55 W 12 6.00 Fair with Haze CLR 60.1 44.1 56% 29.76 1007.1
01 05:55 NW 9 8.00 Fair CLR 61 43 52% 29.76 1006.9
01 04:55 W 10 8.00 Fair CLR 62.1 44.1 69.1 61 52% 29.76 1007.0
01 03:55 W 7 10.00 Fair CLR 63 43 48% 29.77 1007.2
01 02:55 NE 3 10.00 Fair CLR 62.1 44.1 52% 29.77 1007.3
01 01:55 W 12 10.00 Fair CLR 64 43 46% 29.77 1007.2
01 00:55 NW 9 10.00 Fair CLR 68 42.1 39% 29.78 1007.7
31 23:55 NW 6 10.00 Fair CLR 66.9 43 42% 29.78 1007.6
31 22:55 W 9 10.00 Fair CLR 69.1 43 82.9 69.1 39% 29.78 1007.8
31 21:55 NW 6 10.00 Fair CLR 71.1 41 34% 29.79 1008.0
31 20:55 NW 6 10.00 Fair CLR 73 42.1 33% 29.78 1007.9
31 19:55 NE 5 10.00 Fair CLR 75 44.1 33% 77 29.78 1007.8
31 18:55 E 3 10.00 Fair CLR 79 44.1 29% 79 29.78 1007.8
31 17:55 SE 8 10.00 Fair CLR 82 39.9 22% 80 29.8 1008.2
31 16:55 S 9 10.00 Fair CLR 82 39.9 82 66.9 22% 80 29.82 1008.9
31 15:55 SE 9 10.00 Fair CLR 81 39.9 23% 79 29.84 1009.6
31 14:55 SE 9 10.00 Fair CLR 80.1 41 25% 79 29.86 1010.5
31 13:55 SE 8 10.00 Fair CLR 79 41 26% 78 29.89 1011.4
31 12:55 Calm 10.00 Fair CLR 75.9 42.1 30% 77 29.92 1012.4
31 11:55 Calm 9.00 Fair CLR 72 46 40% 29.95 1013.6
31 10:55 Calm 6.00 Fair with Haze CLR 66.9 46 66.9 55 47% 29.98 1014.7
31 09:55 W 5 5.00 Fair with Haze CLR 62.1 46 56% 29.99 1015.3
31 08:55 W 8 7.00 Fair CLR 59 46 62% 30.01 1015.7
31 07:55 W 5 10.00 Fair CLR 57 46 67% 30 1015.5
31 06:55 NW 10 10.00 Fair CLR 55.9 45 67% 29.99 1015.0
31 05:55 N 8 10.00 Fair CLR 55.9 46 70% 29.98 1014.8
31 04:55 NW 10 10.00 Fair CLR 57.9 46 64.9 57 65% 29.98 1014.5
31 03:55 W 6 10.00 Fair CLR 57.9 46 65% 29.98 1014.7
31 02:55 NW 7 10.00 Fair CLR 60.1 46 60% 29.98 1014.5
31 01:55 NW 9 10.00 Fair CLR 62.1 46 56% 29.98 1014.7
31 00:55 NW 9 10.00 Fair CLR 63 46 54% 29.98 1014.6
30 23:55 N 12 10.00 Fair CLR 64 46 52% 29.98 1014.8
30 22:55 N 12 10.00 Fair CLR 64 46 77 64 52% 29.99 1014.9
30 21:55 N 13 10.00 Fair CLR 66 46 49% 29.99 1015.1
30 20:55 N 13 10.00 Fair CLR 69.1 46 44% 29.98 1014.6
30 19:55 SE 7 10.00 Fair CLR 71.1 42.1 35% 29.95 1013.7
30 18:55 E 6 10.00 Fair CLR 73.9 42.1 32% 29.94 1013.6
30 17:55 E 7 10.00 Fair CLR 75.9 41 29% 77 29.95 1013.6
30 16:55 SE 6 10.00 Fair CLR 75.9 39.9 77 66.9 27% 77 29.95 1013.6
30 15:55 SE 8 10.00 Fair CLR 75.9 39.9 27% 77 29.97 1014.2
30 14:55 Vrbl 7 10.00 Fair CLR 75 39 27% 77 29.99 1015.0
30 13:55 Vrbl 6 10.00 Fair CLR 73 39 29% 30 1015.4
30 12:55 S 6 10.00 Fair CLR 71.1 37.9 30% 30.01 1015.7
30 11:55 SW 5 10.00 Fair CLR 68 39.9 36% 30.02 1016.3
30 10:55 W 12 10.00 Fair CLR 66.9 39 68 54 36% 30.02 1016.3
30 09:55 W 10 10.00 Fair CLR 64 39.9 41% 30.03 1016.5
30 08:55 NW 3 10.00 Fair CLR 60.1 41 50% 30.03 1016.7
30 07:55 NW 7 10.00 Fair CLR 59 39.9 49% 30.04 1016.9
30 06:55 NW 5 10.00 Fair CLR 54 39.9 59% 30.03 1016.6
30 05:55 W 6 10.00 Fair CLR 55 39.9 57% 30.02 1016.4
30 04:55 NW 7 10.00 Fair CLR 55 39.9 60.1 54 57% 30.01 1016.0
30 03:55 NW 9 10.00 Fair CLR 55.9 39.9 55% 30.01 1015.8
30 02:55 N 6 10.00 Fair CLR 55.9 39.9 55% 30.01 1015.9
30 01:55 W 8 10.00 Fair CLR 57 39.9 53% 30.01 1015.8
30 00:55 W 13 10.00 Fair CLR 59 39 48% 30 1015.4
29 23:55 W 12 10.00 Fair CLR 60.1 39 46% 30 1015.3
29 22:55 W 12 10.00 Fair CLR 60.1 39 72 60.1 46% 30.01 1015.6
29 21:55 W 7 10.00 Fair CLR 61 37.9 43% 30.01 1015.7
29 20:55 W 13 10.00 Fair CLR 62.1 37.9 41% 30 1015.6
Date Time (pdt) Wind (mph) Vis. (mi.) Weather Sky Cond. Air Dwpt Max. Min. Relative Humidity Wind Chill (°F) Heat Index (°F) altimeter (in) sea level (mb) 1 hr 3 hr 6 hr
6 hour
Temperature (ºF) Pressure Precipitation (in)